createdAt,value
2018-12-03T08:11:37.190Z,808.00
2018-12-03T08:12:37.150Z,928.00
2018-12-03T08:13:37.101Z,988.00
2018-12-03T08:14:37.087Z,1084.00
2018-12-03T08:15:37.057Z,1092.00
2018-12-03T08:16:37.019Z,1176.00
2018-12-03T08:17:37.007Z,1112.00
2018-12-03T08:18:36.961Z,1124.00
2018-12-03T08:19:36.952Z,1040.00
2018-12-03T08:20:36.932Z,1044.00
2018-12-03T08:21:36.903Z,1032.00
2018-12-03T08:22:36.881Z,1164.00
2018-12-03T08:23:36.891Z,1120.00
2018-12-03T08:24:36.826Z,1020.00
2018-12-03T08:25:36.802Z,920.00
2018-12-03T08:26:36.832Z,884.00
2018-12-03T08:27:36.803Z,984.00
2018-12-03T08:28:36.757Z,1112.00
2018-12-03T08:29:36.747Z,1144.00
2018-12-03T08:30:36.718Z,1132.00
2018-12-03T08:31:36.677Z,1124.00
2018-12-03T08:32:36.707Z,1228.00
2018-12-03T08:33:36.670Z,1128.00
2018-12-03T08:34:36.621Z,1288.00
2018-12-03T08:35:36.642Z,1340.00
2018-12-03T08:36:36.597Z,1500.00
2018-12-03T08:37:36.554Z,1760.00
2018-12-03T08:38:36.572Z,2012.00
2018-12-03T08:39:36.521Z,2520.00
2018-12-03T08:40:36.501Z,2096.00
2018-12-03T08:41:36.479Z,2108.00
2018-12-03T08:42:36.480Z,2940.00
2018-12-03T08:43:36.440Z,3108.00
2018-12-03T08:44:36.439Z,2288.00
2018-12-03T08:45:36.407Z,2428.00
2018-12-03T08:46:36.380Z,1944.00
2018-12-03T08:47:36.388Z,2088.00
2018-12-03T08:48:36.344Z,2216.00
2018-12-03T08:49:36.324Z,2404.00
2018-12-03T08:50:36.311Z,2788.00
2018-12-03T08:51:36.293Z,2848.00
2018-12-03T08:52:36.268Z,2988.00
2018-12-03T08:53:36.277Z,3836.00
2018-12-03T08:54:36.235Z,3688.00
2018-12-03T08:55:36.206Z,4332.00
2018-12-03T08:56:36.185Z,3092.00
2018-12-03T08:57:36.197Z,2572.00
2018-12-03T08:58:36.173Z,2564.00
2018-12-03T08:59:36.129Z,2524.00
2018-12-03T09:00:36.141Z,2324.00
2018-12-03T09:01:36.087Z,2000.00
2018-12-03T09:02:36.088Z,1480.00
2018-12-03T09:03:36.078Z,1108.00
2018-12-03T09:04:36.037Z,1236.00
2018-12-03T09:05:36.081Z,1056.00
2018-12-03T09:06:36.022Z,1168.00
2018-12-03T09:07:35.983Z,1084.00
2018-12-03T09:08:35.961Z,988.00
2018-12-03T09:09:35.943Z,1060.00
2018-12-03T09:10:35.922Z,1164.00
2018-12-03T09:11:35.914Z,1060.00
2018-12-03T09:12:35.919Z,1052.00
2018-12-03T09:13:35.870Z,1016.00
2018-12-03T09:14:35.848Z,808.00
2018-12-03T09:15:35.828Z,780.00
2018-12-03T09:16:35.803Z,880.00
2018-12-03T09:17:35.805Z,1040.00
2018-12-03T09:18:35.795Z,1128.00
2018-12-03T09:19:35.784Z,756.00
2018-12-03T09:20:35.734Z,584.00
2018-12-03T09:21:35.744Z,1040.00
2018-12-03T09:22:35.713Z,1828.00
2018-12-03T09:23:35.725Z,2180.00
2018-12-03T09:24:35.654Z,2340.00
2018-12-03T09:25:35.634Z,1996.00
2018-12-03T09:26:35.613Z,2348.00
2018-12-03T09:27:35.609Z,2248.00
2018-12-03T09:28:35.581Z,2208.00
2018-12-03T09:29:35.581Z,2448.00
2018-12-03T09:30:35.539Z,2692.00
2018-12-03T09:31:35.518Z,2800.00
2018-12-03T09:32:35.501Z,2884.00
2018-12-03T09:33:35.482Z,2432.00
2018-12-03T09:34:35.461Z,2480.00
2018-12-03T09:35:35.439Z,2824.00
2018-12-03T09:36:35.419Z,2624.00
2018-12-03T09:37:35.402Z,2536.00
2018-12-03T09:38:35.381Z,2476.00
2018-12-03T09:39:35.360Z,2188.00
2018-12-03T09:41:57.412Z,3044.00
2018-12-03T09:42:57.357Z,2348.00
2018-12-03T09:43:57.351Z,2872.00
2018-12-03T09:44:57.339Z,2676.00
2018-12-03T09:45:57.302Z,2528.00
2018-12-03T09:46:57.279Z,3016.00
2018-12-03T09:47:57.258Z,3276.00
2018-12-03T09:48:57.242Z,3776.00
2018-12-03T09:49:57.246Z,3608.00
2018-12-03T09:50:57.219Z,3364.00
2018-12-03T09:51:57.202Z,3084.00
2018-12-03T09:52:57.170Z,2808.00
2018-12-03T09:53:57.150Z,2488.00
2018-12-03T09:54:57.128Z,2292.00
2018-12-03T09:55:57.116Z,2416.00
2018-12-03T09:56:57.109Z,1956.00
2018-12-03T09:57:57.079Z,2040.00
2018-12-03T09:58:57.051Z,2168.00
2018-12-03T09:59:57.035Z,2420.00
2018-12-03T10:00:57.011Z,2436.00
2018-12-03T10:01:56.991Z,2244.00
2018-12-03T10:02:56.968Z,1880.00
2018-12-03T10:03:56.954Z,2424.00
2018-12-03T10:04:56.934Z,2512.00
2018-12-03T10:05:56.919Z,2428.00
2018-12-03T10:06:56.895Z,2340.00
2018-12-03T10:07:56.874Z,2292.00
2018-12-03T10:08:56.860Z,3340.00
2018-12-03T10:09:56.853Z,3320.00
2018-12-03T10:10:56.818Z,2980.00
2018-12-03T10:11:56.799Z,3176.00
2018-12-03T10:12:56.776Z,2792.00
2018-12-03T10:13:56.764Z,2728.00
2018-12-03T10:14:56.743Z,2752.00
2018-12-03T10:15:56.729Z,2420.00
2018-12-03T10:16:56.706Z,2196.00
2018-12-03T10:17:56.690Z,2296.00
2018-12-03T10:19:00.389Z,1916.00
2018-12-03T10:19:56.646Z,1744.00
2018-12-03T10:20:56.632Z,1808.00
2018-12-03T10:21:56.648Z,1980.00
2018-12-03T10:22:56.587Z,2532.00
2018-12-03T10:23:56.569Z,2876.00
2018-12-03T10:24:56.577Z,3324.00
2018-12-03T10:25:56.564Z,3132.00
2018-12-03T10:26:56.510Z,2984.00
2018-12-03T10:27:56.496Z,2312.00
2018-12-03T10:28:56.538Z,2128.00
2018-12-03T10:29:56.454Z,2556.00
2018-12-03T10:30:56.431Z,2364.00
2018-12-03T10:31:56.415Z,2476.00
2018-12-03T10:32:56.401Z,2680.00
2018-12-03T10:33:56.381Z,2780.00
2018-12-03T10:34:56.384Z,2796.00
2018-12-03T10:35:56.347Z,3028.00
2018-12-03T10:36:56.320Z,3068.00
2018-12-03T10:37:56.301Z,3144.00
2018-12-03T10:38:56.277Z,3148.00
2018-12-03T10:39:56.266Z,3240.00
2018-12-03T10:40:56.244Z,3212.00
2018-12-03T10:41:56.221Z,3240.00
2018-12-03T10:42:56.198Z,3692.00
2018-12-03T10:43:56.181Z,3568.00
2018-12-03T10:44:56.165Z,2916.00
2018-12-03T10:45:56.142Z,1864.00
2018-12-03T10:46:56.149Z,1660.00
2018-12-03T10:47:56.102Z,1260.00
2018-12-03T10:48:56.086Z,1044.00
2018-12-03T10:49:56.072Z,1016.00
2018-12-03T10:50:56.065Z,1144.00
2018-12-03T10:51:56.031Z,1188.00
2018-12-03T10:52:56.015Z,1124.00
2018-12-03T10:53:55.994Z,1088.00
2018-12-03T10:54:55.983Z,1056.00
2018-12-03T10:55:55.953Z,936.00
2018-12-03T10:56:55.954Z,1052.00
2018-12-03T10:57:55.917Z,1132.00
2018-12-03T10:58:55.892Z,1892.00
2018-12-03T10:59:55.883Z,2040.00
2018-12-03T11:00:55.858Z,1568.00
2018-12-03T11:01:55.844Z,1908.00
2018-12-03T11:02:55.818Z,2252.00
2018-12-03T11:03:55.802Z,2040.00
2018-12-03T11:04:55.780Z,1768.00
2018-12-03T11:05:55.759Z,1288.00
2018-12-03T11:06:55.740Z,1268.00
2018-12-03T11:07:55.724Z,1448.00
2018-12-03T11:08:55.711Z,1616.00
2018-12-03T11:09:55.684Z,2008.00
2018-12-03T11:10:55.660Z,1728.00
2018-12-03T11:11:55.648Z,1440.00
2018-12-03T11:12:55.630Z,1316.00
2018-12-03T11:13:55.625Z,1328.00
2018-12-03T11:14:55.581Z,1528.00
2018-12-03T11:15:55.572Z,1596.00
2018-12-03T11:16:55.573Z,1356.00
2018-12-03T11:17:55.560Z,1432.00
2018-12-03T11:18:55.507Z,1584.00
2018-12-03T11:19:55.531Z,1940.00
2018-12-03T11:20:55.475Z,2172.00
2018-12-03T11:21:55.458Z,2184.00
2018-12-03T11:22:55.433Z,2876.00
2018-12-03T11:23:55.412Z,3352.00
2018-12-03T11:24:55.389Z,4404.00
2018-12-03T11:25:55.377Z,4184.00
2018-12-03T11:26:55.357Z,3736.00
2018-12-03T11:27:55.370Z,3876.00
2018-12-03T11:28:55.319Z,3404.00
2018-12-03T11:29:55.334Z,3168.00
2018-12-03T11:30:55.315Z,3236.00
2018-12-03T11:31:55.302Z,3588.00
2018-12-03T11:32:55.238Z,2580.00
2018-12-03T11:33:55.222Z,1948.00
2018-12-03T11:34:55.231Z,1496.00
2018-12-03T11:35:55.189Z,1836.00
2018-12-03T11:36:55.178Z,2184.00
2018-12-03T11:37:55.176Z,2684.00
2018-12-03T11:38:55.130Z,3404.00
2018-12-03T11:39:55.115Z,2616.00
2018-12-03T11:40:55.093Z,3420.00
2018-12-03T11:41:55.077Z,3432.00
2018-12-03T11:42:55.054Z,2432.00
2018-12-03T11:43:55.029Z,2384.00
2018-12-03T11:44:55.062Z,2408.00
2018-12-03T11:45:55.016Z,2256.00
2018-12-03T11:46:54.975Z,1820.00
2018-12-03T11:47:54.960Z,1840.00
2018-12-03T11:48:54.944Z,2300.00
2018-12-03T11:49:54.915Z,2756.00
2018-12-03T11:50:54.897Z,2368.00
2018-12-03T11:51:54.885Z,2832.00
2018-12-03T11:52:54.903Z,3560.00
2018-12-03T11:53:54.842Z,3552.00
2018-12-03T11:54:54.822Z,3412.00
2018-12-03T11:55:54.841Z,2532.00
2018-12-03T11:56:54.781Z,2380.00
2018-12-03T11:57:54.780Z,2744.00
2018-12-03T11:58:54.777Z,2952.00
2018-12-03T11:59:54.727Z,2288.00
2018-12-03T12:00:54.733Z,2220.00
2018-12-03T12:01:54.710Z,2444.00
2018-12-03T12:02:54.715Z,2152.00
2018-12-03T12:03:54.663Z,1972.00
2018-12-03T12:04:54.677Z,2052.00
2018-12-03T12:05:54.616Z,1732.00
2018-12-03T12:06:54.623Z,1932.00
2018-12-03T12:07:54.595Z,2808.00
2018-12-03T12:08:54.593Z,2524.00
2018-12-03T12:09:54.538Z,2116.00
2018-12-03T12:10:54.517Z,2016.00
2018-12-03T12:11:54.555Z,1524.00
2018-12-03T12:12:54.498Z,2652.00
2018-12-03T12:13:54.501Z,2768.00
2018-12-03T12:14:54.444Z,3004.00
2018-12-03T12:15:54.430Z,3268.00
2018-12-03T12:16:54.440Z,3024.00
2018-12-03T12:17:54.434Z,2852.00
2018-12-03T12:18:54.381Z,2744.00
2018-12-03T12:19:54.419Z,2764.00
2018-12-03T12:20:54.330Z,2156.00
2018-12-03T12:21:54.311Z,1880.00
2018-12-03T12:22:54.302Z,2304.00
2018-12-03T12:23:54.298Z,2796.00
2018-12-03T12:24:54.264Z,2536.00
2018-12-03T12:25:54.238Z,2848.00
2018-12-03T12:26:54.247Z,4056.00
2018-12-03T12:27:54.197Z,4856.00
2018-12-03T12:28:54.191Z,4748.00
2018-12-03T12:29:54.193Z,4636.00
2018-12-03T12:30:54.164Z,3848.00
2018-12-03T12:31:54.141Z,3136.00
2018-12-03T12:32:54.119Z,2680.00
2018-12-03T12:33:54.081Z,2176.00
2018-12-03T12:34:54.057Z,1788.00
2018-12-03T12:35:54.051Z,1608.00
2018-12-03T12:36:54.023Z,1700.00
2018-12-03T12:37:56.756Z,1860.00
2018-12-03T12:38:53.990Z,1924.00
2018-12-03T12:39:54.060Z,1880.00
2018-12-03T12:40:53.957Z,1468.00
2018-12-03T12:41:53.990Z,1704.00
2018-12-03T12:42:53.913Z,1680.00
2018-12-03T12:43:53.891Z,1728.00
2018-12-03T12:44:53.942Z,1264.00
2018-12-03T12:45:53.848Z,892.00
2018-12-03T12:46:53.833Z,1052.00
2018-12-03T12:47:53.818Z,1052.00
2018-12-03T12:48:53.791Z,1044.00
2018-12-03T12:49:53.779Z,852.00
2018-12-03T12:50:53.774Z,788.00
2018-12-03T12:51:53.743Z,932.00
2018-12-03T12:52:53.834Z,1028.00
2018-12-03T12:53:53.702Z,1060.00
2018-12-03T12:54:53.690Z,1008.00
2018-12-03T12:55:53.659Z,992.00
2018-12-03T12:56:53.665Z,1084.00
2018-12-03T12:57:53.645Z,1308.00
2018-12-03T12:58:53.617Z,1572.00
2018-12-03T12:59:53.598Z,1856.00
2018-12-03T13:00:53.595Z,2348.00
2018-12-03T13:01:53.566Z,3260.00
2018-12-03T13:02:53.543Z,3920.00
2018-12-03T13:03:53.510Z,5200.00
2018-12-03T13:04:53.511Z,5408.00
2018-12-03T13:05:53.488Z,5480.00
2018-12-03T13:06:53.479Z,6316.00
2018-12-03T13:07:53.513Z,6428.00
2018-12-03T13:08:53.413Z,5832.00
2018-12-03T13:09:53.400Z,5596.00
2018-12-03T13:10:53.389Z,5332.00
2018-12-03T13:11:53.908Z,4204.00
2018-12-03T13:12:53.335Z,3488.00
2018-12-03T13:13:53.324Z,3348.00
2018-12-03T13:14:53.296Z,3340.00
2018-12-03T13:15:53.287Z,3180.00
2018-12-03T13:16:53.262Z,2676.00
2018-12-03T13:17:53.248Z,2300.00
2018-12-03T13:18:53.240Z,2088.00
2018-12-03T13:19:53.202Z,2016.00
2018-12-03T13:20:53.295Z,1948.00
2018-12-03T13:21:53.170Z,2104.00
2018-12-03T13:22:53.157Z,2112.00
2018-12-03T13:23:53.189Z,1760.00
2018-12-03T13:24:53.103Z,1144.00
2018-12-03T13:25:53.091Z,840.00
2018-12-03T13:26:53.141Z,976.00
2018-12-03T13:27:53.058Z,1240.00
2018-12-03T13:28:53.072Z,1288.00
2018-12-03T13:29:53.034Z,1556.00
2018-12-03T13:30:53.003Z,2212.00
2018-12-03T13:31:52.995Z,1880.00
2018-12-03T13:32:53.012Z,1668.00
2018-12-03T13:33:52.937Z,1552.00
2018-12-03T13:34:52.936Z,1380.00
2018-12-03T13:35:52.919Z,1248.00
2018-12-03T13:36:52.929Z,1060.00
2018-12-03T13:37:52.863Z,836.00
2018-12-03T13:38:52.900Z,668.00
2018-12-03T13:39:52.824Z,600.00
2018-12-03T13:40:52.903Z,592.00
2018-12-03T13:41:52.779Z,460.00
2018-12-03T13:42:52.793Z,364.00
2018-12-03T13:43:52.786Z,288.00
2018-12-03T13:44:52.728Z,252.00
2018-12-03T13:45:52.705Z,244.00
2018-12-03T13:46:52.680Z,272.00
2018-12-03T13:47:52.661Z,280.00
2018-12-03T13:48:52.645Z,212.00
2018-12-03T13:49:52.623Z,176.00
2018-12-03T13:50:52.612Z,236.00
2018-12-03T13:51:52.594Z,224.00
2018-12-03T13:52:52.586Z,140.00
2018-12-03T13:53:52.557Z,96.00
2018-12-03T13:54:52.553Z,88.00
2018-12-03T13:55:52.517Z,96.00
2018-12-03T13:56:52.509Z,224.00
2018-12-03T13:57:52.478Z,408.00
2018-12-03T13:58:52.448Z,456.00
2018-12-03T13:59:52.429Z,452.00
2018-12-03T14:00:54.015Z,528.00
2018-12-03T14:01:52.392Z,604.00
2018-12-03T14:02:52.403Z,660.00
2018-12-03T14:03:52.386Z,684.00
2018-12-03T14:04:52.336Z,708.00
2018-12-03T14:05:52.317Z,688.00
2018-12-03T14:06:52.326Z,816.00
2018-12-03T14:07:52.283Z,828.00
2018-12-03T14:08:52.267Z,856.00
2018-12-03T14:09:52.262Z,904.00
2018-12-03T14:10:52.566Z,912.00
2018-12-03T14:11:52.277Z,836.00
2018-12-03T14:12:52.181Z,676.00
2018-12-03T14:13:52.285Z,888.00
2018-12-03T14:14:52.175Z,996.00
2018-12-03T14:15:52.189Z,976.00
2018-12-03T14:16:52.117Z,768.00
2018-12-03T14:17:52.098Z,656.00
2018-12-03T14:18:52.072Z,1024.00
2018-12-03T14:19:52.033Z,1244.00
2018-12-03T14:20:52.043Z,816.00
2018-12-03T14:21:52.051Z,564.00
2018-12-03T14:22:52.006Z,816.00
2018-12-03T14:23:51.964Z,884.00
2018-12-03T14:24:51.988Z,760.00
2018-12-03T14:25:51.946Z,596.00
2018-12-03T14:26:51.917Z,448.00
2018-12-03T14:27:51.912Z,416.00
2018-12-03T14:28:51.874Z,388.00
2018-12-03T14:29:51.846Z,504.00
2018-12-03T14:30:51.850Z,588.00
2018-12-03T14:31:51.834Z,428.00
2018-12-03T14:32:51.802Z,312.00
2018-12-03T14:33:51.761Z,272.00
2018-12-03T14:34:51.752Z,240.00
2018-12-03T14:35:51.717Z,220.00
2018-12-03T14:36:51.696Z,172.00
2018-12-03T14:37:51.694Z,156.00
2018-12-03T14:38:51.660Z,164.00
2018-12-03T14:39:51.642Z,204.00
2018-12-03T14:40:51.641Z,236.00
2018-12-03T14:41:51.743Z,296.00
2018-12-03T14:42:51.582Z,328.00
2018-12-03T14:43:51.569Z,376.00
2018-12-03T14:44:51.567Z,480.00
2018-12-03T14:45:51.526Z,448.00
2018-12-03T14:46:51.515Z,388.00
2018-12-03T14:47:51.546Z,332.00
2018-12-03T14:48:51.496Z,248.00
2018-12-03T14:49:51.487Z,172.00
2018-12-03T14:50:51.448Z,144.00
2018-12-03T14:51:51.397Z,124.00
2018-12-03T14:52:51.391Z,136.00
2018-12-03T14:53:51.360Z,140.00
2018-12-03T14:54:51.340Z,124.00
2018-12-03T14:55:51.340Z,132.00
2018-12-03T14:56:51.299Z,128.00
2018-12-03T14:57:51.294Z,116.00
2018-12-03T14:58:51.262Z,104.00
2018-12-03T14:59:51.314Z,92.00
2018-12-03T15:00:51.218Z,88.00
2018-12-03T15:01:51.226Z,84.00
2018-12-03T15:02:51.233Z,96.00
2018-12-03T15:03:51.196Z,108.00
2018-12-03T15:04:51.244Z,176.00
2018-12-03T15:05:51.119Z,296.00
2018-12-03T15:06:51.168Z,356.00
2018-12-03T15:07:51.132Z,360.00
2018-12-03T15:08:51.096Z,336.00
2018-12-03T15:09:51.058Z,340.00
2018-12-03T15:10:51.041Z,328.00
2018-12-03T15:13:25.694Z,300.00
2018-12-03T15:14:14.030Z,268.00
2018-12-03T15:15:14.065Z,256.00
2018-12-03T15:16:14.008Z,224.00
2018-12-03T15:17:14.079Z,224.00
2018-12-03T15:18:13.953Z,204.00
2018-12-03T15:19:14.027Z,188.00
2018-12-03T15:20:13.892Z,176.00
2018-12-03T15:21:13.937Z,164.00
2018-12-03T15:22:13.857Z,156.00
2018-12-03T15:23:13.836Z,140.00
2018-12-03T15:24:13.829Z,132.00
2018-12-03T15:25:13.813Z,120.00
2018-12-03T15:26:13.812Z,112.00
2018-12-03T15:27:13.826Z,100.00
2018-12-03T15:28:15.578Z,96.00
2018-12-03T15:29:13.719Z,84.00
2018-12-03T15:30:13.720Z,76.00
2018-12-03T15:31:13.791Z,68.00
2018-12-03T15:32:14.884Z,68.00
2018-12-03T15:33:13.883Z,60.00
2018-12-03T15:34:13.647Z,56.00
2018-12-03T15:35:13.619Z,48.00
2018-12-03T15:36:13.595Z,40.00
2018-12-03T15:37:14.056Z,36.00
2018-12-03T15:38:13.532Z,32.00
2018-12-03T15:39:13.648Z,28.00
2018-12-03T15:40:13.501Z,24.00
2018-12-03T15:41:15.117Z,20.00
2018-12-03T15:42:13.630Z,16.00
2018-12-03T15:43:13.516Z,16.00
2018-12-03T15:44:14.061Z,16.00
2018-12-03T15:45:13.553Z,12.00
2018-12-03T15:46:13.388Z,12.00
2018-12-03T15:47:13.347Z,8.00
2018-12-03T15:48:13.329Z,8.00
2018-12-03T15:49:13.311Z,8.00
2018-12-03T15:50:14.452Z,4.00
2018-12-03T15:51:13.269Z,4.00
2018-12-03T15:52:13.566Z,4.00
2018-12-03T15:53:13.293Z,4.00
2018-12-03T15:54:13.576Z,4.00
2018-12-03T15:55:13.184Z,0.00
2018-12-03T15:56:13.605Z,0.00
2018-12-03T15:57:14.029Z,0.00
2018-12-03T15:58:13.506Z,0.00
2018-12-03T15:59:13.364Z,0.00
2018-12-03T16:00:13.109Z,0.00
2018-12-03T16:01:14.528Z,0.00
2018-12-03T16:02:13.422Z,0.00
2018-12-03T16:03:13.049Z,0.00
2018-12-03T16:04:13.029Z,0.00
2018-12-03T16:05:12.984Z,0.00
2018-12-03T16:06:13.070Z,0.00
2018-12-03T16:07:13.007Z,0.00
2018-12-03T16:08:12.932Z,0.00
2018-12-03T16:09:12.935Z,0.00
2018-12-03T16:10:15.985Z,0.00
2018-12-03T16:11:14.639Z,0.00
2018-12-03T16:12:12.841Z,0.00
2018-12-03T16:14:49.508Z,0.00
2018-12-03T16:15:37.914Z,0.00
2018-12-03T16:17:30.326Z,0.00
2018-12-03T16:18:30.288Z,0.00
2018-12-03T16:19:30.517Z,0.00
2018-12-03T16:20:30.282Z,0.00
2018-12-03T16:21:30.272Z,0.00
2018-12-03T16:23:53.251Z,0.00
2018-12-03T16:24:53.214Z,0.00
2018-12-03T16:25:53.187Z,0.00
2018-12-03T16:26:53.222Z,0.00
2018-12-03T16:27:53.161Z,0.00
2018-12-03T16:28:53.139Z,0.00
2018-12-03T16:29:53.113Z,0.00
2018-12-03T16:32:16.172Z,0.00
2018-12-03T16:34:39.168Z,0.00
2018-12-03T16:35:39.130Z,0.00
2018-12-03T16:36:39.127Z,0.00
2018-12-03T16:37:45.214Z,0.00
2018-12-03T16:40:29.164Z,0.00
2018-12-03T16:41:19.928Z,0.00
2018-12-03T16:42:19.895Z,0.00
2018-12-03T16:44:53.005Z,0.00
2018-12-03T16:45:42.886Z,0.00
2018-12-03T16:46:43.007Z,0.00
2018-12-03T16:49:15.950Z,0.00
2018-12-03T16:50:05.855Z,0.00
2018-12-03T16:51:05.841Z,0.00
2018-12-03T16:52:05.857Z,0.00
2018-12-03T16:53:05.785Z,0.00
2018-12-03T16:54:05.787Z,0.00
2018-12-03T16:55:05.773Z,0.00
2018-12-03T16:56:05.735Z,0.00
2018-12-03T16:57:05.704Z,0.00
2018-12-03T16:58:05.678Z,0.00
2018-12-03T16:59:05.662Z,0.00
2018-12-03T17:01:40.341Z,0.00
2018-12-03T17:02:30.129Z,0.00
2018-12-03T17:03:29.669Z,0.00
2018-12-03T17:04:29.657Z,0.00
2018-12-03T17:07:03.716Z,0.00
2018-12-03T17:07:52.609Z,0.00
2018-12-03T17:10:17.894Z,0.00
2018-12-03T17:11:17.883Z,0.00
2018-12-03T17:12:17.848Z,0.00
2018-12-03T17:13:17.839Z,0.00
2018-12-03T17:14:17.846Z,0.00
2018-12-03T17:15:17.787Z,0.00
2018-12-03T17:17:50.687Z,0.00
2018-12-03T17:18:40.804Z,0.00
2018-12-03T17:20:38.263Z,0.00
2018-12-03T17:21:38.242Z,0.00
2018-12-03T17:22:38.385Z,0.00
2018-12-03T17:23:38.293Z,0.00
2018-12-03T17:24:38.292Z,0.00
2018-12-03T17:25:38.152Z,0.00
2018-12-03T17:26:38.128Z,0.00
2018-12-03T17:27:38.111Z,0.00
2018-12-03T17:28:38.089Z,0.00
2018-12-03T17:29:38.163Z,0.00
2018-12-03T17:30:38.044Z,0.00
2018-12-03T17:31:38.059Z,0.00
2018-12-03T17:32:38.117Z,0.00
2018-12-03T17:33:38.015Z,0.00
2018-12-03T17:34:37.964Z,0.00
2018-12-03T17:35:37.946Z,0.00
2018-12-03T17:36:37.956Z,0.00
2018-12-03T17:37:37.909Z,0.00
2018-12-03T17:38:37.885Z,0.00
2018-12-03T17:39:37.870Z,0.00
2018-12-03T17:40:37.840Z,0.00
2018-12-03T17:41:37.837Z,0.00
2018-12-03T17:42:37.804Z,0.00
2018-12-03T17:43:37.802Z,0.00
2018-12-03T17:44:45.529Z,0.00
2018-12-03T17:46:42.358Z,0.00
2018-12-03T17:47:32.096Z,0.00
2018-12-03T17:48:32.108Z,0.00
2018-12-03T17:49:32.107Z,0.00
2018-12-03T17:50:40.853Z,0.00
2018-12-03T17:52:26.847Z,0.00
2018-12-03T17:53:26.411Z,0.00
2018-12-03T17:55:59.662Z,0.00
2018-12-03T18:00:12.162Z,0.00
2018-12-03T18:02:37.511Z,0.00
2018-12-03T18:03:26.119Z,0.00
2018-12-03T18:04:26.096Z,0.00
2018-12-03T18:05:26.196Z,0.00
2018-12-03T18:06:26.064Z,0.00
2018-12-03T18:07:26.162Z,0.00
2018-12-03T18:08:26.055Z,0.00
2018-12-03T18:10:49.067Z,0.00
2018-12-03T18:13:22.158Z,0.00
2018-12-03T18:14:13.472Z,0.00
2018-12-03T18:15:12.015Z,0.00
2018-12-03T18:16:12.051Z,0.00
2018-12-03T18:17:11.956Z,0.00
2018-12-03T18:18:19.677Z,0.00
2018-12-03T18:20:09.098Z,0.00
2018-12-03T18:22:42.286Z,0.00
2018-12-03T18:23:32.056Z,0.00
2018-12-03T18:24:31.976Z,0.00
2018-12-03T18:25:32.157Z,0.00
2018-12-03T18:26:32.846Z,0.00
2018-12-03T18:27:31.953Z,0.00
2018-12-03T18:28:31.938Z,0.00
2018-12-03T18:31:05.549Z,0.00
2018-12-03T18:31:54.903Z,0.00
2018-12-03T18:33:49.285Z,0.00
2018-12-03T18:34:49.638Z,0.00
2018-12-03T18:37:21.364Z,0.00
2018-12-03T18:38:11.277Z,0.00
2018-12-03T18:39:11.399Z,0.00
2018-12-03T18:40:11.277Z,0.00
2018-12-03T18:42:35.096Z,0.00
2018-12-03T18:43:34.872Z,0.00
2018-12-03T18:44:35.957Z,0.00
2018-12-03T18:45:34.829Z,0.00
2018-12-03T18:47:58.030Z,0.00
2018-12-03T18:50:30.464Z,0.00
2018-12-03T18:51:20.531Z,0.00
2018-12-03T18:52:20.801Z,0.00
2018-12-03T18:53:20.273Z,0.00
2018-12-03T18:54:20.263Z,0.00
2018-12-03T18:55:20.147Z,0.00
2018-12-03T18:56:28.831Z,0.00
2018-12-03T18:58:14.923Z,0.00
2018-12-03T18:59:14.689Z,0.00
2018-12-03T19:00:14.489Z,0.00
2018-12-03T19:02:37.495Z,0.00
2018-12-03T19:05:11.837Z,0.00
2018-12-03T19:06:00.963Z,0.00
2018-12-03T19:07:00.659Z,0.00
2018-12-03T19:08:00.619Z,0.00
2018-12-03T19:09:00.630Z,0.00
2018-12-03T19:11:33.714Z,0.00
2018-12-03T19:12:23.565Z,0.00
2018-12-03T19:14:47.676Z,0.00
2018-12-03T19:15:47.657Z,0.00
2018-12-03T19:17:42.235Z,0.00
2018-12-03T19:18:42.090Z,0.00
2018-12-03T19:19:42.078Z,0.00
2018-12-03T19:20:41.955Z,0.00
2018-12-03T19:21:41.950Z,0.00
2018-12-03T19:22:41.924Z,0.00
2018-12-03T19:23:41.907Z,0.00
2018-12-03T19:24:41.865Z,0.00
2018-12-03T19:25:41.899Z,0.00
2018-12-03T19:28:03.904Z,0.00
2018-12-03T19:29:04.028Z,0.00
2018-12-03T19:30:03.841Z,0.00
2018-12-03T19:31:03.972Z,0.00
2018-12-03T19:32:03.819Z,0.00
2018-12-03T19:33:03.780Z,0.00
2018-12-03T19:34:03.754Z,0.00
2018-12-03T19:35:05.454Z,0.00
2018-12-03T19:36:03.711Z,0.00
2018-12-03T19:37:03.792Z,0.00
2018-12-03T19:38:03.727Z,0.00
2018-12-03T19:39:03.706Z,0.00
2018-12-03T19:40:03.747Z,0.00
2018-12-03T19:41:03.614Z,0.00
2018-12-03T19:43:37.870Z,0.00
2018-12-03T19:44:26.766Z,0.00
2018-12-03T19:45:26.586Z,0.00
2018-12-03T19:46:26.660Z,0.00
2018-12-03T19:47:26.541Z,0.00
2018-12-03T19:48:26.671Z,0.00
2018-12-03T19:49:26.492Z,0.00
2018-12-03T19:50:26.477Z,0.00
2018-12-03T19:51:26.468Z,0.00
2018-12-03T19:52:26.436Z,0.00
2018-12-03T19:53:26.425Z,0.00
2018-12-03T19:54:26.396Z,0.00
2018-12-03T19:55:26.376Z,0.00
2018-12-03T19:56:26.475Z,0.00
2018-12-03T19:57:26.366Z,0.00
2018-12-03T19:58:26.323Z,0.00
2018-12-03T19:59:26.296Z,0.00
2018-12-03T20:00:26.291Z,0.00
2018-12-03T20:01:26.248Z,0.00
2018-12-03T20:02:26.231Z,0.00
2018-12-03T20:03:26.256Z,0.00
2018-12-03T20:04:26.213Z,0.00
2018-12-03T20:05:26.194Z,0.00
2018-12-03T20:06:26.172Z,0.00
2018-12-03T20:07:26.126Z,0.00
2018-12-03T20:08:26.121Z,0.00
2018-12-03T20:09:26.105Z,0.00
2018-12-03T20:10:26.125Z,0.00
2018-12-03T20:11:26.059Z,0.00
2018-12-03T20:12:26.033Z,0.00
2018-12-03T20:14:49.296Z,0.00
2018-12-03T20:15:49.019Z,0.00
2018-12-03T20:16:48.991Z,0.00
2018-12-03T20:17:49.017Z,0.00
2018-12-03T20:18:48.999Z,0.00
2018-12-03T20:19:48.947Z,0.00
2018-12-03T20:20:48.908Z,0.00
2018-12-03T20:21:48.890Z,0.00
2018-12-03T20:22:49.077Z,0.00
2018-12-03T20:23:48.887Z,0.00
2018-12-03T20:24:48.876Z,0.00
2018-12-03T20:27:21.984Z,0.00
2018-12-03T20:28:12.103Z,0.00
2018-12-03T20:29:11.863Z,0.00
2018-12-03T20:30:11.796Z,0.00
2018-12-03T20:31:11.805Z,0.00
2018-12-03T20:32:11.719Z,0.00
2018-12-03T20:33:11.721Z,0.00
2018-12-03T20:34:11.690Z,0.00
2018-12-03T20:35:11.684Z,0.00
2018-12-03T20:36:11.640Z,0.00
2018-12-03T20:37:11.630Z,0.00
2018-12-03T20:39:34.682Z,0.00
2018-12-03T20:40:42.286Z,0.00
2018-12-03T20:42:31.162Z,0.00
2018-12-03T20:43:30.851Z,0.00
2018-12-03T20:44:39.452Z,0.00
2018-12-03T20:46:26.040Z,0.00
2018-12-03T20:48:59.124Z,0.00
2018-12-03T20:49:48.853Z,0.00
2018-12-03T20:50:49.025Z,0.00
2018-12-03T20:51:48.873Z,0.00
2018-12-03T20:52:58.562Z,0.00
2018-12-03T20:54:43.309Z,0.00
2018-12-03T20:57:08.349Z,0.00
2018-12-03T20:58:19.374Z,0.00
2018-12-03T21:00:14.738Z,0.00
2018-12-03T21:01:03.514Z,0.00
2018-12-03T21:02:03.524Z,0.00
2018-12-03T21:03:03.671Z,0.00
2018-12-03T21:04:03.448Z,0.00
2018-12-03T21:05:03.422Z,0.00
2018-12-03T21:06:03.420Z,0.00
2018-12-03T21:07:03.398Z,0.00
2018-12-03T21:08:03.362Z,0.00
2018-12-03T21:09:03.394Z,0.00
2018-12-03T21:10:03.326Z,0.00
2018-12-03T21:11:03.348Z,0.00
2018-12-03T21:12:03.318Z,0.00
2018-12-03T21:13:03.295Z,0.00
2018-12-03T21:14:03.265Z,0.00
2018-12-03T21:15:03.217Z,0.00
2018-12-03T21:16:11.991Z,0.00
2018-12-03T21:17:57.615Z,0.00
2018-12-03T21:18:57.587Z,0.00
2018-12-03T21:19:57.642Z,0.00
2018-12-03T21:20:57.527Z,0.00
2018-12-03T21:23:20.610Z,0.00
2018-12-03T21:24:22.457Z,0.00
2018-12-03T21:26:44.799Z,0.00
2018-12-03T21:27:45.599Z,0.00
2018-12-03T21:28:53.446Z,0.00
2018-12-03T21:30:40.488Z,0.00
2018-12-03T21:33:19.571Z,0.00
2018-12-03T21:34:05.761Z,0.00
2018-12-03T21:35:05.808Z,0.00
2018-12-03T21:36:05.661Z,0.00
2018-12-03T21:38:40.319Z,0.00
2018-12-03T21:39:30.362Z,0.00
2018-12-03T21:40:30.394Z,0.00
2018-12-03T21:41:30.346Z,0.00
2018-12-03T21:42:30.301Z,0.00
2018-12-03T21:43:30.391Z,0.00
2018-12-03T21:44:30.288Z,0.00
2018-12-03T21:45:30.299Z,0.00
2018-12-03T21:46:30.291Z,0.00
2018-12-03T21:48:53.311Z,0.00
2018-12-03T21:49:53.266Z,0.00
2018-12-03T21:50:53.317Z,0.00
2018-12-03T21:51:53.234Z,0.00
2018-12-03T21:52:53.216Z,0.00
2018-12-03T21:53:53.164Z,0.00
2018-12-03T21:54:53.228Z,0.00
2018-12-03T21:55:53.146Z,0.00
2018-12-03T21:56:53.110Z,0.00
2018-12-03T21:57:53.359Z,0.00
2018-12-03T21:58:53.377Z,0.00
2018-12-03T21:59:56.868Z,0.00